Lucapa Airport


Codes: FNLK/LBZ
Name: Lucapa Airport
City: Lucapa
Country: Angola
Elevation: 3029 ft.
Wikipedia:

Photos at Lucapa Airport


   Photos courtesy of SpottingLog. You can add your own sightings and photos by signing up for a free trial today.



No photos found.

Weather at Lucapa Airport


Time (UTC)DescriptionTempratureWindCloud coverageVisibilityPressureHumidity
21-Feb-2024 03:00Overcast Clouds20°C2 mph, S87%10000m1010hPa96%
21-Feb-2024 06:00Overcast Clouds20°C2 mph, S88%10000m1010hPa94%
21-Feb-2024 09:00Broken Clouds26°C4 mph, SE65%10000m1010hPa72%
21-Feb-2024 12:00Broken Clouds31°C4 mph, SE55%10000m1007hPa50%
21-Feb-2024 15:00Broken Clouds29°C4 mph, SE64%10000m1005hPa67%
21-Feb-2024 18:00Light Rain21°C7 mph, NE65%9226m1008hPa94%
21-Feb-2024 21:00Light Rain20°C0 mph, S100%10000m1009hPa94%
22-Feb-2024 00:00Light Rain20°C2 mph, N100%10000m1008hPa95%
22-Feb-2024 03:00Light Rain20°C2 mph, N100%10000m1008hPa95%
22-Feb-2024 06:00Light Rain21°C0 mph, NE100%10000m1010hPa94%
22-Feb-2024 09:00Light Rain26°C4 mph, N84%8842m1010hPa78%
22-Feb-2024 12:00Moderate Rain27°C4 mph, NE90%10000m1007hPa78%
22-Feb-2024 15:00Moderate Rain25°C4 mph, NW100%10000m1006hPa87%
22-Feb-2024 18:00Moderate Rain21°C2 mph, W100%9613m1009hPa95%
22-Feb-2024 21:00Light Rain21°C2 mph, S100%9741m1011hPa96%
23-Feb-2024 00:00Light Rain20°C2 mph, W100%10000m1009hPa97%
23-Feb-2024 03:00Overcast Clouds19°C2 mph, W89%10000m1009hPa97%
23-Feb-2024 06:00Overcast Clouds21°C2 mph, SW90%10000m1011hPa92%
23-Feb-2024 09:00Overcast Clouds28°C2 mph, SW100%10000m1011hPa64%
23-Feb-2024 12:00Overcast Clouds31°C2 mph, NW89%10000m1007hPa53%
23-Feb-2024 15:00Light Rain27°C4 mph, NE80%10000m1005hPa71%
23-Feb-2024 18:00Light Rain22°C2 mph, SW70%10000m1008hPa89%
23-Feb-2024 21:00Light Rain20°C4 mph, NW99%10000m1012hPa96%
24-Feb-2024 00:00Light Rain20°C2 mph, SW100%10000m1012hPa99%
24-Feb-2024 03:00Light Rain20°C2 mph, SW100%10000m1012hPa98%
24-Feb-2024 06:00Light Rain20°C2 mph, SW100%10000m1014hPa96%
24-Feb-2024 09:00Overcast Clouds23°C4 mph, SW100%10000m1014hPa84%
24-Feb-2024 12:00Light Rain25°C2 mph, W100%10000m1011hPa78%
24-Feb-2024 15:00Moderate Rain22°C7 mph, N100%9586m1011hPa93%
24-Feb-2024 18:00Light Rain20°C2 mph, NW100%10000m1012hPa98%
24-Feb-2024 21:00Overcast Clouds19°C2 mph, SW99%10000m1014hPa98%
25-Feb-2024 00:00Overcast Clouds20°C2 mph, SW100%10000m1012hPa97%
25-Feb-2024 03:00Light Rain20°C2 mph, SW100%10000m1012hPa96%
25-Feb-2024 06:00Light Rain20°C2 mph, S100%10000m1015hPa96%
25-Feb-2024 09:00Light Rain22°C0 mph, NE100%10000m1016hPa92%
25-Feb-2024 12:00Light Rain24°C4 mph, N100%10000m1013hPa79%
25-Feb-2024 15:00Overcast Clouds24°C4 mph, N100%10000m1011hPa78%
25-Feb-2024 18:00Overcast Clouds20°C4 mph, N98%10000m1013hPa97%
25-Feb-2024 21:00Overcast Clouds19°C4 mph, NW100%10000m1015hPa98%
26-Feb-2024 00:00Overcast Clouds18°C2 mph, W100%10000m1013hPa98%